KDXR

Danbury Municipal Airport

Danbury, Connecticut, USA
METAR KDXR 181553Z 00000KT 10SM OVC012 01/M05 A3008 RMK AO2 SLP190 T00061050
Observed Flight Rules
Dec-18 @ 15:53 UTC (44 minutes ago) Marginal Visual Flight Rules
Wind Visibility Clouds
Calm 10 miles
  • Overcast at 1,200' AGL
Temperatures Readings
Current 1°C / 34°F
Dewpoint -5°C / 23°F
Humidity 65%
Altimeter 30.08" Hg
Pressure 1019 hPa
Elevation 139
METAR KDXR 181553Z 00000KT 10SM OVC012 01/M05 A3008 RMK AO2 SLP190 T00061050
Observed Flight Rules
Dec-18 @ 15:53 UTC
(44 minutes ago)
MVFR
Wind Visibility
Calm 10 miles
Clouds
  • Overcast at 1,200' AGL
Temperature Dewpoint
1°C / 34°F -5°C / 23°F
Humidity Altimeter Pressure
65% 30.08" Hg 1019 hPa